Aviation Digital Data Service (ADDS)

Output produced by METARs form (1328 UTC 24 January 2021)
found at http://www.aviationweather.gov/metar/data/
 
LETO 241300Z 27011KT 230V300 9999 SCT045 12/02 Q1014 NOSIG
TAF LETO 241100Z 2412/2512 25012KT 9999 FEW040 TX12/2415Z TN08/2507Z 
     PROB30 
     TEMPO 2412/2418 24015G25KT 
     TEMPO 2505/2512 24015G25KT 
     TEMPO 2502/2512 BKN008 
     PROB30 
     TEMPO 2505/2512 1000 RA BCFG BKN004
       
LEZG 241300Z 31006KT 280V340 9999 FEW050 13/05 Q1011
TAF LEZG 241100Z 2412/2512 30012KT 9999 SCT050 TX14/2414Z TN06/2506Z 
     PROB30 
     TEMPO 2412/2416 RA BKN040 
     BECMG 2412/2414 34005KT 
     BECMG 2417/2419 26015G26KT 
     BECMG 2423/2501 27007KT 
     PROB40 
     TEMPO 2505/2512 RA BKN030
       
LERT 241300Z 31007KT 280V340 9999 FEW024 16/12 Q1020 NOSIG
TAF AMD LERT 240858Z 2409/2509 27009KT 9999 SCT020 TX17/2415Z TN14/2506Z 
     PROB40 
     TEMPO 2409/2411 4000 RADZ BKN010 BKN020
       
LELC 241300Z 12008KT 090V150 CAVOK 16/12 Q1012 NOSIG
TAF LELC 241100Z 2412/2512 07010KT CAVOK TX19/2413Z TN13/2507Z 
     BECMG 2417/2419 32007KT 
     BECMG 2510/2512 22012KT
       
LEAB 241300Z 30021G31KT CAVOK 12/05 Q1014 NOSIG
TAF LEAB 241100Z 2412/2512 28020KT 9999 FEW035 TX12/2415Z TN08/2506Z 
     TEMPO 2412/2415 27020G34KT 
     PROB30 
     TEMPO 2500/2506 3000 BR BKN010
       
LEBZ 241300Z 28009KT 9999 FEW027 15/10 Q1018
TAF LEBZ 241100Z 2412/2512 24008KT 9999 SCT020 TX16/2414Z TN12/2507Z 
     PROB40 
     TEMPO 2506/2510 4000 RADZ BR BKN010
       
LEMO 241300Z 30006KT 9999 FEW028 17/14 Q1019 NOSIG
TAF LEMO 240800Z 2409/2509 24009KT 9999 SCT020 TX17/2415Z TN13/2418Z 
     PROB40 
     TEMPO 2409/2412 4000 RA BKN014
       
LESA 241300Z 26016KT 230V290 9999 FEW020 SCT025 BKN035 09/03 Q1015
TAF LESA 240800Z 2409/2509 25014KT 9999 SCT030 TX11/2415Z TN05/2409Z 
     PROB40 
     TEMPO 2500/2509 2000 RA BR BKN006
       
GCLP 241300Z 03013KT 9999 FEW025 21/16 Q1022 NOSIG
TAF GCLP 240800Z 2409/2509 03011KT 9999 FEW020 TX22/2414Z TN16/2507Z 
     PROB30 
     TEMPO 2500/2509 BKN014
       
LIPR 241320Z 30010KT 8000 -RA SCT010 BKN030 07/05 Q0996
TAF LIPR 241100Z 2412/2421 31010KT 9999 BKN020 BKN035 
     TEMPO 2412/2414 4000 RA